Time;durP1;ratioP1;P1;durP2;ratioP2;P2;SDS_P1;SDS_P2;PMS_P1;PMS_P2;Temp;Humidity;BMP_temperature;BMP_pressure;BME280_temperature;BME280_humidity;BME280_pressure;Samples;Min_cycle;Max_cycle;Signal;HPM_P1;HPM_P2
2021/09/11 00:00:16;;;;;;;0.00;0.00;;;16.40;99.90;;;;;;5020327;28;20021;-77
2021/09/11 00:02:43;;;;;;;0.00;0.00;;;16.30;99.90;;;;;;5030037;28;20017;-77
2021/09/11 00:05:09;;;;;;;0.00;0.00;;;16.40;99.90;;;;;;5047318;28;20021;-77
2021/09/11 00:07:35;;;;;;;0.00;0.00;;;16.30;99.90;;;;;;5046853;28;20574;-77
2021/09/11 00:10:01;;;;;;;0.00;0.00;;;16.40;99.90;;;;;;5028306;28;20025;-78
2021/09/11 00:12:26;;;;;;;0.00;0.00;;;16.30;99.90;;;;;;5046025;28;20032;-78
2021/09/11 00:14:52;;;;;;;0.00;0.00;;;16.20;99.90;;;;;;5045174;28;20497;-77
2021/09/11 00:17:18;;;;;;;0.00;0.00;;;16.20;99.90;;;;;;5010423;28;20040;-78
2021/09/11 00:19:43;;;;;;;0.00;0.00;;;16.10;99.90;;;;;;5010008;28;20030;-78
2021/09/11 00:22:09;;;;;;;0.00;0.00;;;16.20;99.90;;;;;;5026913;28;20017;-78
2021/09/11 00:24:35;;;;;;;0.00;0.00;;;16.20;99.90;;;;;;5027159;28;20438;-77
2021/09/11 00:27:00;;;;;;;0.00;0.00;;;16.30;99.90;;;;;;5027049;28;20029;-78
2021/09/11 00:29:26;;;;;;;0.00;0.00;;;16.40;99.90;;;;;;5026339;28;20029;-78
2021/09/11 00:31:52;;;;;;;0.00;0.00;;;16.30;99.90;;;;;;5043961;28;20047;-78
2021/09/11 00:34:18;;;;;;;0.00;0.00;;;16.40;99.90;;;;;;5046596;28;20033;-77
2021/09/11 00:36:44;;;;;;;0.00;0.00;;;16.40;99.90;;;;;;5049507;28;20029;-77
2021/09/11 00:39:10;;;;;;;0.00;0.00;;;16.50;99.90;;;;;;5048161;28;20056;-77
2021/09/11 00:41:35;;;;;;;0.00;0.00;;;16.40;99.90;;;;;;5047725;28;20022;-78
2021/09/11 00:44:01;;;;;;;0.00;0.00;;;16.40;99.90;;;;;;5048230;28;20034;-78
2021/09/11 00:46:27;;;;;;;0.00;0.00;;;16.50;99.90;;;;;;5027985;28;20055;-78
2021/09/11 00:48:53;;;;;;;0.00;0.00;;;16.60;99.90;;;;;;5028079;28;20029;-78
2021/09/11 00:51:19;;;;;;;0.00;0.00;;;16.60;99.90;;;;;;5045051;28;20057;-77
2021/09/11 00:53:45;;;;;;;0.00;0.00;;;16.60;99.90;;;;;;5010738;28;20025;-78
2021/09/11 00:56:12;;;;;;;0.00;0.00;;;16.60;99.90;;;;;;5026220;28;20024;-78
2021/09/11 00:58:39;;;;;;;0.00;0.00;;;16.50;99.90;;;;;;5043509;28;20022;-78
2021/09/11 01:01:06;;;;;;;0.00;0.00;;;16.50;99.90;;;;;;5024668;28;20025;-78
2021/09/11 01:03:32;;;;;;;0.00;0.00;;;16.40;99.90;;;;;;5007223;28;20055;-76
2021/09/11 01:05:58;;;;;;;0.00;0.00;;;16.40;99.90;;;;;;5022248;28;20087;-77
2021/09/11 01:08:26;;;;;;;0.00;0.00;;;16.40;99.90;;;;;;5023043;28;20090;-77
2021/09/11 01:10:52;;;;;;;0.00;0.00;;;16.40;99.90;;;;;;5023304;28;20025;-77
2021/09/11 01:13:19;;;;;;;0.00;0.00;;;16.30;99.90;;;;;;5041560;28;20036;-77
2021/09/11 01:15:45;;;;;;;0.47;0.47;;;16.30;99.90;;;;;;5022792;28;20100;-78
2021/09/11 01:18:11;;;;;;;0.00;0.00;;;16.20;99.90;;;;;;5021626;28;20091;-78
2021/09/11 01:20:37;;;;;;;0.00;0.00;;;16.10;99.90;;;;;;5002327;28;20053;-78
2021/09/11 01:23:03;;;;;;;0.00;0.00;;;15.90;99.90;;;;;;5039464;28;20053;-77
2021/09/11 01:25:29;;;;;;;2.08;0.70;;;15.90;99.90;;;;;;5021217;28;20375;-77
2021/09/11 01:27:55;;;;;;;0.00;0.00;;;15.80;99.90;;;;;;5039010;28;20040;-76
2021/09/11 01:30:22;;;;;;;0.00;0.00;;;15.90;99.90;;;;;;5020819;28;20045;-77
2021/09/11 01:32:49;;;;;;;0.17;0.17;;;15.90;99.90;;;;;;5038003;28;20025;-78
2021/09/11 01:35:16;;;;;;;0.00;0.00;;;15.90;99.90;;;;;;5040347;28;20531;-77
2021/09/11 01:37:42;;;;;;;0.00;0.00;;;15.90;99.90;;;;;;5038447;28;20021;-77
2021/09/11 01:40:09;;;;;;;0.00;0.00;;;15.90;99.90;;;;;;5004101;28;20021;-79
2021/09/11 01:42:35;;;;;;;0.00;0.00;;;16.00;99.90;;;;;;5019363;28;20025;-76
2021/09/11 01:45:09;;;;;;;1.15;0.20;;;16.00;99.90;;;;;;5020253;28;20025;-77
2021/09/11 01:47:36;;;;;;;0.00;0.00;;;15.90;99.90;;;;;;5003657;28;20033;-78
2021/09/11 01:50:03;;;;;;;0.00;0.00;;;15.90;99.90;;;;;;5019251;28;20022;-78
2021/09/11 01:52:28;;;;;;;0.10;0.10;;;16.00;99.90;;;;;;5038172;28;20029;-77
2021/09/11 01:54:54;;;;;;;0.00;0.00;;;15.90;99.90;;;;;;5019547;28;20405;-77
2021/09/11 01:57:20;;;;;;;0.00;0.00;;;16.00;99.90;;;;;;5018981;28;20470;-76
2021/09/11 01:59:45;;;;;;;0.00;0.00;;;16.00;99.90;;;;;;5018754;28;20025;-77
2021/09/11 02:02:11;;;;;;;0.00;0.00;;;16.00;99.90;;;;;;5019029;28;20028;-77
2021/09/11 02:04:38;;;;;;;0.00;0.00;;;16.10;99.90;;;;;;5018091;28;20030;-77
2021/09/11 02:07:05;;;;;;;0.00;0.00;;;16.10;99.90;;;;;;5017590;28;20021;-77
2021/09/11 02:09:32;;;;;;;0.00;0.00;;;16.10;99.90;;;;;;5035889;28;20018;-77
2021/09/11 02:11:58;;;;;;;0.00;0.00;;;16.10;99.90;;;;;;5018069;28;20418;-77
2021/09/11 02:14:24;;;;;;;0.00;0.00;;;16.20;99.90;;;;;;5016379;28;20021;-76
2021/09/11 02:16:50;;;;;;;0.00;0.00;;;16.20;99.90;;;;;;5034784;28;20033;-77
2021/09/11 02:19:16;;;;;;;0.00;0.00;;;16.20;99.90;;;;;;5000476;28;20051;-78
2021/09/11 02:21:41;;;;;;;0.00;0.00;;;16.20;99.90;;;;;;5034875;28;20104;-78
2021/09/11 02:24:07;;;;;;;0.00;0.00;;;16.20;99.90;;;;;;5017214;28;20048;-77
2021/09/11 02:26:33;;;;;;;0.00;0.00;;;16.20;99.90;;;;;;5016692;28;20116;-77
2021/09/11 02:29:00;;;;;;;0.00;0.00;;;16.30;99.90;;;;;;5016482;28;20026;-77
2021/09/11 02:31:25;;;;;;;0.00;0.00;;;16.30;99.90;;;;;;5016638;28;20025;-77
2021/09/11 02:33:51;;;;;;;0.00;0.00;;;16.20;99.90;;;;;;5016352;28;20091;-77
2021/09/11 02:36:17;;;;;;;0.00;0.00;;;16.40;99.90;;;;;;5034197;28;20100;-77
2021/09/11 02:38:43;;;;;;;0.00;0.00;;;16.40;99.90;;;;;;5033837;28;20101;-77
2021/09/11 02:41:10;;;;;;;0.00;0.00;;;16.30;99.90;;;;;;5016214;28;20018;-77
2021/09/11 02:43:35;;;;;;;0.00;0.00;;;16.30;99.90;;;;;;5015783;28;20026;-77
2021/09/11 02:46:01;;;;;;;0.00;0.00;;;16.20;99.90;;;;;;4999690;28;20112;-77
2021/09/11 02:48:27;;;;;;;0.00;0.00;;;16.20;99.90;;;;;;4999966;28;20025;-77
2021/09/11 02:50:53;;;;;;;0.00;0.00;;;16.20;99.90;;;;;;5016084;28;20025;-77
2021/09/11 02:53:19;;;;;;;0.00;0.00;;;16.30;99.90;;;;;;5033717;28;20410;-76
2021/09/11 02:55:44;;;;;;;0.00;0.00;;;16.30;99.90;;;;;;5033483;28;20025;-78
2021/09/11 02:58:10;;;;;;;0.00;0.00;;;16.40;99.90;;;;;;5015847;28;20032;-77
2021/09/11 03:00:36;;;;;;;0.00;0.00;;;16.60;99.90;;;;;;5038506;28;20022;-77
2021/09/11 03:03:02;;;;;;;0.00;0.00;;;16.70;99.90;;;;;;5027693;28;20029;-77
2021/09/11 03:05:28;;;;;;;0.00;0.00;;;16.70;99.90;;;;;;5027663;28;20052;-77
2021/09/11 03:07:53;;;;;;;0.00;0.00;;;16.80;99.90;;;;;;5010180;28;20021;-78
2021/09/11 03:10:19;;;;;;;0.00;0.00;;;16.80;99.90;;;;;;5025849;28;20018;-78
2021/09/11 03:12:45;;;;;;;0.00;0.00;;;16.70;99.90;;;;;;5024428;28;20021;-78
2021/09/11 03:15:12;;;;;;;0.00;0.00;;;16.60;99.90;;;;;;5041266;28;20057;-78
2021/09/11 03:17:38;;;;;;;0.00;0.00;;;16.40;99.90;;;;;;5005134;28;20112;-77
2021/09/11 03:20:05;;;;;;;0.00;0.00;;;16.40;99.90;;;;;;5005518;28;20028;-77
2021/09/11 03:22:30;;;;;;;0.00;0.00;;;16.50;99.90;;;;;;5020709;28;20026;-78
2021/09/11 03:24:56;;;;;;;0.00;0.00;;;16.50;99.90;;;;;;5020575;28;20029;-78
2021/09/11 03:27:22;;;;;;;0.00;0.00;;;16.40;99.90;;;;;;5018527;28;20079;-79
2021/09/11 03:29:47;;;;;;;0.00;0.00;;;16.40;99.90;;;;;;5035545;28;20041;-78
2021/09/11 03:32:13;;;;;;;0.00;0.00;;;16.30;99.90;;;;;;5018565;28;20029;-77
2021/09/11 03:34:39;;;;;;;0.00;0.00;;;16.20;99.90;;;;;;5036520;28;20028;-77
2021/09/11 03:37:05;;;;;;;0.00;0.00;;;16.20;99.90;;;;;;5018851;28;20506;-77
2021/09/11 03:39:31;;;;;;;0.00;0.00;;;16.00;99.90;;;;;;5036589;28;20021;-77
2021/09/11 03:41:56;;;;;;;0.00;0.00;;;16.00;99.90;;;;;;5037274;28;20017;-77
2021/09/11 03:44:22;;;;;;;0.00;0.00;;;16.00;99.90;;;;;;5035825;28;20026;-76
2021/09/11 03:46:48;;;;;;;0.00;0.00;;;15.90;99.90;;;;;;5035270;28;20075;-78
2021/09/11 03:49:13;;;;;;;0.00;0.00;;;15.90;99.90;;;;;;5035506;28;20075;-77
2021/09/11 03:51:39;;;;;;;0.00;0.00;;;15.90;99.90;;;;;;5017357;28;20079;-77
2021/09/11 03:54:05;;;;;;;0.00;0.00;;;16.00;99.90;;;;;;5034787;28;20421;-77
2021/09/11 03:56:30;;;;;;;0.00;0.00;;;16.00;99.90;;;;;;5000627;28;20021;-77
2021/09/11 03:58:56;;;;;;;0.00;0.00;;;16.10;99.90;;;;;;5034709;28;20026;-76
2021/09/11 04:01:22;;;;;;;0.00;0.00;;;16.00;99.90;;;;;;5034034;28;20029;-78
2021/09/11 04:03:47;;;;;;;0.00;0.00;;;16.00;99.90;;;;;;5021778;28;20043;-77
2021/09/11 04:06:13;;;;;;;0.00;0.00;;;16.30;99.90;;;;;;5041979;28;20100;-77
2021/09/11 04:08:39;;;;;;;0.00;0.00;;;16.40;99.90;;;;;;5024468;28;20103;-78
2021/09/11 04:11:05;;;;;;;0.00;0.00;;;16.50;99.90;;;;;;5023305;28;20040;-77
2021/09/11 04:13:33;;;;;;;0.00;0.00;;;16.50;99.90;;;;;;5023209;28;20092;-78
2021/09/11 04:15:58;;;;;;;0.00;0.00;;;16.60;99.90;;;;;;5040031;28;20025;-78
2021/09/11 04:18:24;;;;;;;0.00;0.00;;;16.70;99.90;;;;;;5035985;23;20045;-78
2021/09/11 04:20:50;;;;;;;0.00;0.00;;;16.70;99.90;;;;;;4997353;28;20030;-78
2021/09/11 04:23:16;;;;;;;0.00;0.00;;;16.80;99.90;;;;;;4997329;28;20065;-78
2021/09/11 04:25:41;;;;;;;0.00;0.00;;;16.70;99.90;;;;;;5013552;28;20033;-79
2021/09/11 04:28:07;;;;;;;0.00;0.00;;;16.50;99.90;;;;;;4997267;28;20029;-80
2021/09/11 04:30:33;;;;;;;0.00;0.00;;;16.40;99.90;;;;;;5013327;28;20034;-80
2021/09/11 04:32:59;;;;;;;0.00;0.00;;;16.40;99.90;;;;;;4997122;28;20116;-80
2021/09/11 04:35:24;;;;;;;0.00;0.00;;;16.30;99.90;;;;;;5031121;28;20064;-81
2021/09/11 04:37:50;;;;;;;0.00;0.00;;;16.10;99.90;;;;;;5015553;28;20033;-80
2021/09/11 04:40:16;;;;;;;0.00;0.00;;;16.10;99.90;;;;;;5034853;28;20017;-80
2021/09/11 04:42:42;;;;;;;0.00;0.00;;;15.90;99.90;;;;;;5016889;28;20025;-80
2021/09/11 04:45:08;;;;;;;0.00;0.00;;;15.80;99.90;;;;;;5000490;28;20116;-79
2021/09/11 04:47:33;;;;;;;0.00;0.00;;;15.80;99.90;;;;;;5016921;28;20055;-80
2021/09/11 04:49:59;;;;;;;0.00;0.00;;;15.90;99.90;;;;;;5017009;28;20053;-79
2021/09/11 04:52:25;;;;;;;0.00;0.00;;;15.90;99.90;;;;;;5034666;28;20035;-80
2021/09/11 04:54:50;;;;;;;0.00;0.00;;;15.80;99.90;;;;;;5016526;28;20039;-79
2021/09/11 04:57:16;;;;;;;0.00;0.00;;;15.90;99.90;;;;;;5000337;28;20018;-79
2021/09/11 04:59:42;;;;;;;0.00;0.00;;;15.90;99.90;;;;;;5034419;28;20030;-79
2021/09/11 05:02:07;;;;;;;0.00;0.00;;;15.80;99.90;;;;;;5016631;28;20508;-80
2021/09/11 05:04:33;;;;;;;0.00;0.00;;;15.70;99.90;;;;;;5034118;28;20041;-81
2021/09/11 05:06:59;;;;;;;0.00;0.00;;;15.70;99.90;;;;;;5016572;28;20105;-79
2021/09/11 05:09:26;;;;;;;0.00;0.00;;;15.70;99.90;;;;;;5016427;28;20069;-79
2021/09/11 05:11:52;;;;;;;0.00;0.00;;;15.70;99.90;;;;;;5016571;28;20029;-79
2021/09/11 05:14:18;;;;;;;0.00;0.00;;;15.80;99.90;;;;;;5000097;28;20059;-80
2021/09/11 05:16:44;;;;;;;0.00;0.00;;;15.80;99.90;;;;;;5016574;28;20109;-80
2021/09/11 05:19:09;;;;;;;0.00;0.00;;;15.80;99.90;;;;;;5016277;28;20112;-80
2021/09/11 05:21:35;;;;;;;0.00;0.00;;;15.90;99.90;;;;;;5016482;28;20017;-80
2021/09/11 05:24:01;;;;;;;0.00;0.00;;;16.10;99.90;;;;;;5034004;28;20021;-80
2021/09/11 05:26:26;;;;;;;0.00;0.00;;;16.30;99.90;;;;;;5033590;28;20057;-80
2021/09/11 05:28:52;;;;;;;0.00;0.00;;;16.40;99.90;;;;;;5016291;28;20437;-79
2021/09/11 05:31:18;;;;;;;0.00;0.00;;;16.40;99.90;;;;;;4999709;28;20026;-80
2021/09/11 05:33:44;;;;;;;0.00;0.00;;;16.50;99.90;;;;;;4999586;28;20044;-79
2021/09/11 05:36:10;;;;;;;0.00;0.00;;;16.60;99.90;;;;;;5030905;28;20030;-80
2021/09/11 05:38:35;;;;;;;0.00;0.00;;;16.80;99.90;;;;;;4999150;28;20029;-80
2021/09/11 05:41:01;;;;;;;0.00;0.00;;;16.90;99.90;;;;;;5033251;28;20436;-80
2021/09/11 05:43:27;;;;;;;0.00;0.00;;;16.70;99.90;;;;;;5007616;28;20035;-80
2021/09/11 05:45:53;;;;;;;0.00;0.00;;;16.80;99.90;;;;;;5004333;28;20399;-79
2021/09/11 05:48:18;;;;;;;0.00;0.00;;;17.00;99.90;;;;;;5015482;28;20501;-81
2021/09/11 05:50:44;;;;;;;0.00;0.00;;;17.10;99.90;;;;;;5015459;28;20406;-80
2021/09/11 05:53:10;;;;;;;0.00;0.00;;;17.20;99.90;;;;;;5033062;28;20029;-80
2021/09/11 05:55:35;;;;;;;0.00;0.00;;;17.20;99.90;;;;;;5033193;28;20470;-80
2021/09/11 05:58:02;;;;;;;0.00;0.00;;;17.40;99.90;;;;;;5006826;28;20021;-80
2021/09/11 06:00:28;;;;;;;0.00;0.00;;;17.70;99.90;;;;;;5053105;28;20021;-79
2021/09/11 06:02:53;;;;;;;0.00;0.00;;;17.70;99.90;;;;;;5035649;28;20052;-81
2021/09/11 06:05:19;;;;;;;0.00;0.00;;;17.70;99.90;;;;;;5052804;28;20029;-80
2021/09/11 06:07:46;;;;;;;0.00;0.00;;;17.90;99.90;;;;;;5034787;28;20021;-80
2021/09/11 06:10:12;;;;;;;0.00;0.00;;;18.20;99.90;;;;;;5035204;28;20031;-80
2021/09/11 06:12:38;;;;;;;0.00;0.00;;;18.40;99.90;;;;;;5035280;28;20021;-80
2021/09/11 06:15:08;;;;;;;0.00;0.00;;;18.50;99.90;;;;;;5025959;28;20033;-80
2021/09/11 06:17:34;;;;;;;0.00;0.00;;;18.70;99.90;;;;;;5018571;28;20032;-77
2021/09/11 06:20:00;;;;;;;0.00;0.00;;;18.60;99.90;;;;;;5015514;28;20394;-77
2021/09/11 06:22:26;;;;;;;0.00;0.00;;;18.60;99.90;;;;;;5032870;28;20029;-78
2021/09/11 06:24:52;;;;;;;0.00;0.00;;;18.80;99.90;;;;;;5015456;28;20029;-80
2021/09/11 06:27:18;;;;;;;0.03;0.03;;;18.80;99.90;;;;;;5032525;28;20025;-78
2021/09/11 06:29:44;;;;;;;0.00;0.00;;;18.80;99.90;;;;;;4998391;28;20124;-79
2021/09/11 06:32:10;;;;;;;0.00;0.00;;;18.60;99.90;;;;;;4997457;28;20029;-78
2021/09/11 06:34:36;;;;;;;0.00;0.00;;;18.60;99.90;;;;;;5015075;28;20097;-78
2021/09/11 06:37:02;;;;;;;0.00;0.00;;;18.90;99.90;;;;;;4998933;28;20025;-79
2021/09/11 06:39:27;;;;;;;0.00;0.00;;;18.90;99.90;;;;;;4998875;28;20024;-78
2021/09/11 06:41:54;;;;;;;0.00;0.00;;;18.90;99.90;;;;;;5014699;28;20124;-79
2021/09/11 06:44:20;;;;;;;0.00;0.00;;;18.80;99.90;;;;;;5014823;28;20036;-79
2021/09/11 06:46:45;;;;;;;0.00;0.00;;;18.70;99.90;;;;;;4998016;28;20025;-79
2021/09/11 06:49:11;;;;;;;0.00;0.00;;;18.60;99.90;;;;;;5032961;28;20483;-78
2021/09/11 06:51:37;;;;;;;0.00;0.00;;;18.50;99.90;;;;;;5014800;28;20052;-79
2021/09/11 06:54:02;;;;;;;0.00;0.00;;;18.70;99.90;;;;;;5032364;28;20108;-78
2021/09/11 06:56:28;;;;;;;0.00;0.00;;;18.70;99.90;;;;;;5014316;28;20494;-79
2021/09/11 06:58:53;;;;;;;0.03;0.03;;;18.60;99.90;;;;;;5032355;28;20109;-78
2021/09/11 07:01:21;;;;;;;0.00;0.00;;;18.60;99.90;;;;;;5031618;28;20017;-78
2021/09/11 07:03:47;;;;;;;0.00;0.00;;;18.60;99.90;;;;;;5032553;28;20075;-78
2021/09/11 07:06:13;;;;;;;0.00;0.00;;;18.80;99.90;;;;;;5032043;28;20116;-78
2021/09/11 07:08:39;;;;;;;0.00;0.00;;;18.90;99.90;;;;;;5032363;28;20029;-78
2021/09/11 07:11:10;;;;;;;0.00;0.00;;;19.00;99.90;;;;;;5032123;28;20489;-78
2021/09/11 07:13:36;;;;;;;0.00;0.00;;;19.00;99.90;;;;;;5014340;28;20490;-78
2021/09/11 07:16:01;;;;;;;0.00;0.00;;;19.20;99.90;;;;;;5031556;28;20036;-78
2021/09/11 07:18:27;;;;;;;0.10;0.10;;;19.20;99.90;;;;;;5031860;28;20034;-78
2021/09/11 07:20:52;;;;;;;0.00;0.00;;;19.20;99.90;;;;;;4998155;28;20025;-78
2021/09/11 07:23:18;;;;;;;0.10;0.10;;;19.10;99.90;;;;;;5014361;28;20112;-78
2021/09/11 07:25:44;;;;;;;0.00;0.00;;;19.20;99.90;;;;;;5031634;28;20427;-78
2021/09/11 07:28:09;;;;;;;0.00;0.00;;;19.50;99.90;;;;;;5031358;28;20083;-78
2021/09/11 07:30:36;;;;;;;0.00;0.00;;;19.90;99.90;;;;;;5031867;28;20441;-78
2021/09/11 07:33:01;;;;;;;0.00;0.00;;;19.90;99.90;;;;;;5031703;28;20044;-78
2021/09/11 07:35:27;;;;;;;0.00;0.00;;;20.20;99.90;;;;;;5013978;28;20018;-78
2021/09/11 07:37:53;;;;;;;0.03;0.03;;;20.20;99.90;;;;;;5031755;28;20116;-78
2021/09/11 07:40:19;;;;;;;0.00;0.00;;;20.50;99.90;;;;;;4997916;28;20223;-78
2021/09/11 07:42:44;;;;;;;0.00;0.00;;;20.50;99.90;;;;;;5014676;28;20471;-78
2021/09/11 07:45:13;;;;;;;0.00;0.00;;;20.40;99.90;;;;;;5014635;28;20029;-78
2021/09/11 07:47:41;;;;;;;0.00;0.00;;;20.80;99.90;;;;;;5014249;28;20094;-79
2021/09/11 07:50:07;;;;;;;0.00;0.00;;;20.70;99.90;;;;;;5014891;28;20030;-79
2021/09/11 07:52:33;;;;;;;0.40;0.40;;;21.10;99.90;;;;;;5014506;28;20034;-79
2021/09/11 07:54:59;;;;;;;0.00;0.00;;;21.30;99.90;;;;;;5031707;28;20034;-79
2021/09/11 07:57:24;;;;;;;0.00;0.00;;;21.50;99.90;;;;;;5032064;28;20066;-79
2021/09/11 07:59:50;;;;;;;0.00;0.00;;;21.90;99.90;;;;;;5032211;28;20045;-79
2021/09/11 08:02:16;;;;;;;0.00;0.00;;;22.60;99.90;;;;;;5014899;28;20033;-79
2021/09/11 08:04:42;;;;;;;0.00;0.00;;;22.80;99.90;;;;;;5031790;28;20029;-78
2021/09/11 08:07:07;;;;;;;0.00;0.00;;;23.00;99.90;;;;;;5013683;28;20033;-78
2021/09/11 08:09:33;;;;;;;0.00;0.00;;;24.00;99.90;;;;;;4997429;28;20116;-78
2021/09/11 08:11:59;;;;;;;0.00;0.00;;;25.40;93.80;;;;;;5032248;28;20052;-79
2021/09/11 08:14:25;;;;;;;0.00;0.00;;;26.30;86.10;;;;;;5035669;28;20021;-79
2021/09/11 08:16:50;;;;;;;0.00;0.00;;;27.80;77.90;;;;;;5034967;28;20032;-79
2021/09/11 08:19:16;;;;;;;0.10;0.10;;;29.80;74.40;;;;;;5017733;28;20470;-80
2021/09/11 08:21:42;;;;;;;0.00;0.00;;;31.90;64.50;;;;;;5035394;28;20453;-79
2021/09/11 08:24:08;;;;;;;0.00;0.00;;;32.50;53.80;;;;;;5017454;28;20084;-79
2021/09/11 08:26:34;;;;;;;0.00;0.00;;;34.00;50.00;;;;;;5001033;28;20032;-80
2021/09/11 08:29:00;;;;;;;0.00;0.00;;;35.00;46.60;;;;;;5034901;28;20028;-80
2021/09/11 08:31:27;;;;;;;0.00;0.00;;;36.20;45.80;;;;;;5017300;28;20021;-79
2021/09/11 08:33:53;;;;;;;0.00;0.00;;;36.60;44.20;;;;;;5017422;28;20061;-80
2021/09/11 08:36:19;;;;;;;0.00;0.00;;;35.80;44.90;;;;;;5000693;28;20055;-79
2021/09/11 08:38:44;;;;;;;0.00;0.00;;;35.30;45.10;;;;;;5017654;28;20452;-80
2021/09/11 08:41:11;;;;;;;0.00;0.00;;;35.10;45.30;;;;;;5017460;28;20189;-79
2021/09/11 08:43:37;;;;;;;0.00;0.00;;;34.90;46.60;;;;;;5034923;28;20025;-80
2021/09/11 08:46:03;;;;;;;0.00;0.00;;;34.20;45.80;;;;;;5016783;28;20040;-80
2021/09/11 08:48:29;;;;;;;0.00;0.00;;;33.90;47.30;;;;;;5017444;28;20052;-80
2021/09/11 08:50:57;;;;;;;0.57;0.57;;;34.70;48.40;;;;;;5017211;28;20027;-80
2021/09/11 08:53:23;;;;;;;0.00;0.00;;;35.30;42.70;;;;;;5034544;28;20449;-80
2021/09/11 08:55:49;;;;;;;0.00;0.00;;;36.80;40.30;;;;;;5034758;28;20055;-80
2021/09/11 08:58:22;;;;;;;0.00;0.00;;;38.60;39.50;;;;;;5016945;28;20104;-80
2021/09/11 09:00:55;;;;;;;0.00;0.00;;;40.60;36.00;;;;;;5034848;28;20032;-80
2021/09/11 09:03:41;;;;;;;0.00;0.00;;;42.10;32.90;;;;;;5034695;28;20041;-80
2021/09/11 09:06:15;;;;;;;0.00;0.00;;;42.30;33.00;;;;;;5017145;28;20053;-80
2021/09/11 09:08:41;;;;;;;0.00;0.00;;;40.90;33.50;;;;;;5000544;28;20379;-80
2021/09/11 09:11:34;;;;;;;0.00;0.00;;;39.80;35.30;;;;;;5016874;28;20455;-80
2021/09/11 09:14:03;;;;;;;0.00;0.00;;;38.50;35.20;;;;;;5014406;28;20131;-80
2021/09/11 09:16:35;;;;;;;0.00;0.00;;;36.40;38.20;;;;;;5033921;28;20083;-80
2021/09/11 09:19:14;;;;;;;0.00;0.00;;;34.70;42.00;;;;;;5000595;28;20029;-80
2021/09/11 09:21:40;;;;;;;0.00;0.00;;;33.40;43.90;;;;;;5000290;28;20633;-80
2021/09/11 09:24:08;;;;;;;0.00;0.00;;;33.10;46.30;;;;;;4999450;28;20486;-80
2021/09/11 09:26:52;;;;;;;0.00;0.00;;;32.90;46.50;;;;;;5000245;28;20030;-80
2021/09/11 09:29:19;;;;;;;0.00;0.00;;;31.70;45.70;;;;;;5034297;28;20021;-80
2021/09/11 09:31:46;;;;;;;0.00;0.00;;;30.60;48.50;;;;;;5016721;28;20021;-79
2021/09/11 09:34:32;;;;;;;0.00;0.00;;;30.20;50.00;;;;;;5016184;28;20033;-80
2021/09/11 09:37:00;;;;;;;0.00;0.00;;;29.70;52.40;;;;;;5033927;28;20104;-80
2021/09/11 09:39:26;;;;;;;0.45;0.38;;;29.10;53.00;;;;;;5016328;28;20033;-79
2021/09/11 09:41:59;;;;;;;0.00;0.00;;;28.50;53.30;;;;;;5034234;28;20350;-79
2021/09/11 09:44:25;;;;;;;0.00;0.00;;;28.00;54.40;;;;;;5016292;28;20032;-79
2021/09/11 09:46:51;;;;;;;0.00;0.00;;;27.70;56.50;;;;;;5033890;28;20406;-79
2021/09/11 09:49:19;;;;;;;0.00;0.00;;;27.30;55.90;;;;;;5034789;28;20032;-79
2021/09/11 09:51:46;;;;;;;0.00;0.00;;;27.10;55.00;;;;;;5034205;28;20022;-79
2021/09/11 09:54:13;;;;;;;0.00;0.00;;;26.70;57.00;;;;;;5015963;28;20033;-79
2021/09/11 09:56:39;;;;;;;0.00;0.00;;;26.70;56.50;;;;;;5033381;28;20025;-79
2021/09/11 09:59:06;;;;;;;0.00;0.00;;;26.60;56.60;;;;;;5033354;28;20021;-79
2021/09/11 10:01:32;;;;;;;0.00;0.00;;;26.60;56.90;;;;;;5034129;28;20021;-79
2021/09/11 10:03:57;;;;;;;0.00;0.00;;;26.70;59.20;;;;;;5033552;28;20032;-79
2021/09/11 10:06:45;;;;;;;0.00;0.00;;;26.60;57.30;;;;;;5032955;28;20029;-80
2021/09/11 10:09:14;;;;;;;0.00;0.00;;;26.40;57.10;;;;;;5015866;28;20414;-79
2021/09/11 10:11:49;;;;;;;0.08;0.08;;;26.60;56.80;;;;;;5015851;28;20029;-79
2021/09/11 10:14:16;;;;;;;0.00;0.00;;;26.90;56.10;;;;;;5015696;28;20083;-80
2021/09/11 10:16:44;;;;;;;0.00;0.00;;;27.10;56.20;;;;;;5032794;28;20073;-79
2021/09/11 10:19:28;;;;;;;0.00;0.00;;;27.50;56.00;;;;;;5018353;23;20068;-73
2021/09/11 10:22:14;;;;;;;0.00;0.00;;;27.50;54.90;;;;;;5013089;28;20022;-73
2021/09/11 10:24:40;;;;;;;0.00;0.00;;;27.70;55.80;;;;;;4999336;28;20095;-73
2021/09/11 10:27:23;;;;;;;0.00;0.00;;;28.10;57.00;;;;;;5013152;28;20432;-73
2021/09/11 10:29:56;;;;;;;0.00;0.00;;;28.10;59.60;;;;;;4995204;28;20049;-72
2021/09/11 10:32:40;;;;;;;0.00;0.00;;;27.90;55.30;;;;;;5013082;28;20080;-73
2021/09/11 10:35:19;;;;;;;0.00;0.00;;;28.00;56.70;;;;;;5012027;28;20045;-73
2021/09/11 10:37:59;;;;;;;0.00;0.00;;;28.30;53.90;;;;;;4995273;28;20030;-73
2021/09/11 10:40:43;;;;;;;0.00;0.00;;;29.00;55.20;;;;;;4995328;28;20030;-73
2021/09/11 10:43:09;;;;;;;0.00;0.00;;;30.10;52.50;;;;;;5012749;28;20053;-73
2021/09/11 10:45:44;;;;;;;0.00;0.00;;;30.50;49.70;;;;;;5012567;28;20558;-73
2021/09/11 10:48:28;;;;;;;0.00;0.00;;;31.10;48.00;;;;;;5012573;28;20026;-73
2021/09/11 10:50:54;;;;;;;0.00;0.00;;;31.00;47.80;;;;;;5012770;28;20018;-73
2021/09/11 10:53:22;;;;;;;0.00;0.00;;;30.90;47.90;;;;;;4994905;28;20076;-73
2021/09/11 10:55:48;;;;;;;0.00;0.00;;;31.00;50.00;;;;;;4994952;28;20026;-73
2021/09/11 10:58:21;;;;;;;0.00;0.00;;;30.00;51.60;;;;;;4994738;28;20030;-73
2021/09/11 11:00:57;;;;;;;0.00;0.00;;;30.10;49.50;;;;;;4994875;28;20500;-73
2021/09/11 11:03:24;;;;;;;0.00;0.00;;;29.80;50.00;;;;;;5012378;28;20072;-73
2021/09/11 11:06:00;;;;;;;0.00;0.00;;;29.50;51.20;;;;;;5012534;28;20029;-73
2021/09/11 11:08:29;;;;;;;0.00;0.00;;;29.30;51.00;;;;;;5012437;28;20400;-73
2021/09/11 11:10:56;;;;;;;0.00;0.00;;;29.00;51.80;;;;;;5012414;28;20076;-73
2021/09/11 11:13:23;;;;;;;0.00;0.00;;;28.90;53.10;;;;;;4994733;28;20029;-73
2021/09/11 11:15:56;;;;;;;0.00;0.00;;;28.80;51.90;;;;;;5012231;28;20026;-73
2021/09/11 11:18:22;;;;;;;0.00;0.00;;;28.70;53.80;;;;;;5012007;28;20057;-72
2021/09/11 11:20:48;;;;;;;0.00;0.00;;;28.40;51.90;;;;;;5012134;28;20073;-73
2021/09/11 11:23:14;;;;;;;0.00;0.00;;;28.40;52.40;;;;;;5012098;28;20401;-73
2021/09/11 11:25:40;;;;;;;0.00;0.00;;;28.50;51.50;;;;;;5012099;28;20018;-73
2021/09/11 11:28:09;;;;;;;0.00;0.00;;;29.30;54.20;;;;;;5011829;28;20026;-73
2021/09/11 11:30:37;;;;;;;0.00;0.00;;;30.20;49.50;;;;;;4994684;28;20477;-74
2021/09/11 11:33:04;;;;;;;0.00;0.00;;;30.50;50.30;;;;;;5012145;28;20022;-73
2021/09/11 11:35:31;;;;;;;0.00;0.00;;;30.90;48.30;;;;;;5011857;28;20026;-73
2021/09/11 11:37:57;;;;;;;0.00;0.00;;;31.80;48.30;;;;;;5011787;28;20041;-73
2021/09/11 11:40:23;;;;;;;0.10;0.10;;;32.80;46.10;;;;;;5011963;28;20022;-73
2021/09/11 11:42:49;;;;;;;0.00;0.00;;;32.80;42.70;;;;;;4994493;28;20513;-73
2021/09/11 11:45:17;;;;;;;0.00;0.00;;;32.50;45.40;;;;;;5011692;28;20026;-73
2021/09/11 11:47:56;;;;;;;0.00;0.00;;;32.20;47.20;;;;;;5015577;28;20062;-73
2021/09/11 11:50:26;;;;;;;0.00;0.00;;;32.30;47.30;;;;;;4998485;28;20525;-73
2021/09/11 11:53:01;;;;;;;0.00;0.00;;;32.50;43.90;;;;;;5015902;28;20056;-73
2021/09/11 11:55:30;;;;;;;0.00;0.00;;;32.70;44.50;;;;;;4998109;28;20453;-73
2021/09/11 11:58:17;;;;;;;0.00;0.00;;;33.20;47.10;;;;;;5015813;28;20022;-73
2021/09/11 12:00:47;;;;;;;0.00;0.00;;;33.50;41.90;;;;;;5015701;28;20129;-73
2021/09/11 12:03:43;;;;;;;0.00;0.00;;;33.50;44.10;;;;;;5016110;28;20018;-73
2021/09/11 12:06:29;;;;;;;0.00;0.00;;;34.10;41.00;;;;;;5015459;28;20279;-73
2021/09/11 12:09:01;;;;;;;0.00;0.00;;;35.30;41.70;;;;;;5015293;28;20045;-73
2021/09/11 12:11:27;;;;;;;0.00;0.00;;;36.50;41.80;;;;;;5015805;28;20038;-73
2021/09/11 12:13:55;;;;;;;0.00;0.00;;;36.90;37.70;;;;;;4998017;28;20636;-73
2021/09/11 12:16:22;;;;;;;0.00;0.00;;;35.80;37.50;;;;;;5015349;28;20025;-73
2021/09/11 12:18:48;;;;;;;0.00;0.00;;;34.70;39.10;;;;;;5015330;28;20030;-73
2021/09/11 12:21:16;;;;;;;0.00;0.00;;;33.90;41.10;;;;;;5015474;28;20094;-73
2021/09/11 12:23:47;;;;;;;0.00;0.00;;;32.80;42.60;;;;;;4997940;28;20551;-73
2021/09/11 12:26:14;;;;;;;0.00;0.00;;;31.90;45.70;;;;;;5015064;28;20022;-73
2021/09/11 12:28:44;;;;;;;0.00;0.00;;;31.20;44.80;;;;;;4997650;28;20028;-73
2021/09/11 12:31:19;;;;;;;0.00;0.00;;;30.80;49.50;;;;;;5015224;28;20022;-73
2021/09/11 12:33:54;;;;;;;0.00;0.00;;;30.40;47.10;;;;;;5015170;28;20033;-73
2021/09/11 12:36:21;;;;;;;0.00;0.00;;;30.20;48.50;;;;;;5014946;28;20030;-73
2021/09/11 12:38:47;;;;;;;0.00;0.00;;;29.90;49.30;;;;;;4997699;28;20084;-73
2021/09/11 12:41:13;;;;;;;0.00;0.00;;;29.80;49.30;;;;;;5015025;28;20022;-73
2021/09/11 12:43:39;;;;;;;0.00;0.00;;;30.00;48.50;;;;;;4997382;28;20513;-73
2021/09/11 12:46:05;;;;;;;0.00;0.00;;;29.70;48.70;;;;;;4997037;28;20391;-73
2021/09/11 12:48:30;;;;;;;0.00;0.00;;;29.60;48.50;;;;;;5014917;28;20083;-72